Time;durP1;ratioP1;P1;durP2;ratioP2;P2;SDS_P1;SDS_P2;PMS_P1;PMS_P2;Temp;Humidity;BMP_temperature;BMP_pressure;BME280_temperature;BME280_humidity;BME280_pressure;Samples;Min_cycle;Max_cycle;Signal;HPM_P1;HPM_P2
2022/07/02 00:04:59;;;;;;;2.08;1.65;;;;;;;22.95;54.05;94099.16;4880774;24;20068;-96
2022/07/02 00:07:55;;;;;;;;;;;;;;;22.99;54.45;94096.13;5137510;24;20015;-95
2022/07/02 00:10:23;;;;;;;2.03;1.60;;;;;;;22.94;54.38;94094.22;4860784;24;19925;-96
2022/07/02 00:18:11;;;;;;;1.58;1.48;;;;;;;22.93;54.43;94071.41;4848670;24;20039;-96
2022/07/02 00:20:51;;;;;;;1.58;1.48;;;;;;;22.93;54.17;94076.19;4817460;24;20068;-96
2022/07/02 00:23:47;;;;;;;1.70;1.50;;;;;;;22.93;54.35;94090.72;4823340;24;20039;-95
2022/07/02 00:26:38;;;;;;;3.40;1.50;;;;;;;22.92;54.45;94089.22;4820995;24;20452;-95
2022/07/02 00:29:42;;;;;;;2.30;1.52;;;;;;;22.91;54.20;94090.47;4876452;24;20111;-96
2022/07/02 00:32:10;;;;;;;1.40;1.30;;;;;;;22.91;54.48;94098.75;4816328;24;20077;-96
2022/07/02 00:35:20;;;;;;;1.50;1.40;;;;;;;22.92;54.18;94097.50;4818994;24;20040;-96
2022/07/02 00:38:08;;;;;;;1.40;1.30;;;;;;;22.92;54.56;94099.50;4866602;24;20097;-96
2022/07/02 00:40:36;;;;;;;1.75;1.60;;;;;;;22.91;54.08;94093.25;4812043;24;20035;-96
2022/07/02 00:43:24;;;;;;;1.35;1.25;;;;;;;22.91;54.29;94107.03;4839228;24;20042;-96
2022/07/02 00:48:19;;;;;;;1.83;1.63;;;;;;;22.90;54.26;94111.78;4861617;24;20098;-96
2022/07/02 00:53:35;;;;;;;1.88;1.63;;;;;;;22.89;54.44;94102.03;4808111;24;20031;-96
2022/07/02 00:56:06;;;;;;;1.30;1.20;;;;;;;22.90;54.36;94092.50;4851373;24;20035;-96
2022/07/02 00:58:37;;;;;;;1.88;1.38;;;;;;;22.89;54.52;94101.28;4744612;30;20096;-96
2022/07/02 01:03:37;;;;;;;2.35;1.77;;;;;;;22.91;54.44;94096.00;4842012;24;20039;-96
2022/07/02 01:06:23;;;;;;;1.60;1.50;;;;;;;22.91;54.26;94093.25;4830198;24;20102;-96
2022/07/02 01:11:37;;;;;;;1.50;1.30;;;;;;;22.90;54.19;94098.00;4812338;24;20100;-96
2022/07/02 01:14:22;;;;;;;1.60;1.30;;;;;;;22.88;54.37;94100.53;4832952;24;20040;-95
2022/07/02 01:17:08;;;;;;;1.40;1.30;;;;;;;22.88;54.46;94100.53;4823348;24;20059;-96
2022/07/02 01:19:57;;;;;;;1.50;1.20;;;;;;;22.89;54.41;94104.03;4786293;24;20046;-96
2022/07/02 01:22:59;;;;;;;1.50;1.40;;;;;;;22.89;54.17;94104.78;4807818;24;20036;-95
2022/07/02 01:26:21;;;;;;;1.40;1.20;;;;;;;22.88;54.13;94097.03;4823894;24;20038;-96
2022/07/02 01:35:16;;;;;;;1.27;1.17;;;;;;;22.85;54.67;94089.81;4895276;24;20063;-96
2022/07/02 01:37:45;;;;;;;1.52;1.35;;;;;;;22.87;54.52;94092.78;4816870;24;20073;-95
2022/07/02 01:40:36;;;;;;;1.42;1.30;;;;;;;22.84;54.22;94091.81;4833052;24;20063;-96
2022/07/02 01:43:04;;;;;;;1.55;1.45;;;;;;;22.85;53.99;94090.56;4861349;24;20056;-96
2022/07/02 01:46:11;;;;;;;1.15;1.05;;;;;;;22.84;54.11;94091.09;4819311;24;20048;-96
2022/07/02 01:51:08;;;;;;;1.92;1.30;;;;;;;22.85;54.11;94092.56;4828928;24;20134;-95
2022/07/02 01:53:39;;;;;;;1.95;1.30;;;;;;;22.84;54.09;94086.31;4761459;30;20590;-96
2022/07/02 01:56:33;;;;;;;1.58;1.38;;;;;;;22.84;54.01;94080.06;4801699;24;21136;-96
2022/07/02 01:59:18;;;;;;;1.23;1.13;;;;;;;22.82;54.36;94088.84;4904012;24;20032;-96
2022/07/02 02:04:21;;;;;;;1.52;1.42;;;;;;;22.83;54.31;94095.84;4820322;24;20059;-96
2022/07/02 02:07:05;;;;;;;1.27;1.17;;;;;;;22.82;54.27;94099.13;4857644;24;20935;-96
2022/07/02 02:10:10;;;;;;;1.70;1.45;;;;;;;22.83;54.19;94103.38;4817034;24;20071;-96
2022/07/02 02:12:59;;;;;;;1.40;1.05;;;;;;;22.82;54.07;94105.38;4814209;24;20102;-96
2022/07/02 02:15:35;;;;;;;1.60;1.50;;;;;;;22.82;54.18;94112.91;4793649;24;20051;-96
2022/07/02 02:18:12;;;;;;;1.35;1.25;;;;;;;22.81;54.19;94103.91;4858794;24;20033;-96
2022/07/02 02:21:44;;;;;;;1.48;1.35;;;;;;;22.82;53.99;94107.41;4805758;24;20043;-96
2022/07/02 02:24:10;;;;;;;1.30;1.20;;;;;;;22.82;54.49;94107.41;4804602;24;20047;-96
2022/07/02 02:26:36;;;;;;;1.60;1.40;;;;;;;22.80;54.09;94102.41;4800180;24;20046;-95
2022/07/02 02:29:22;;;;;;;0.88;0.88;;;;;;;22.80;54.24;94107.91;4810466;24;20090;-96
2022/07/02 02:32:01;;;;;;;1.48;1.38;;;;;;;22.81;53.96;94111.41;4904438;24;20078;-95
2022/07/02 02:34:27;;;;;;;1.20;1.10;;;;;;;22.81;53.75;94108.66;4794257;24;20031;-96
2022/07/02 02:39:26;;;;;;;1.20;1.05;;;;;;;22.81;53.85;94109.41;4826510;24;20039;-96
2022/07/02 02:41:57;;;;;;;1.38;1.27;;;;;;;22.79;54.01;94111.94;4876908;24;20044;-95
2022/07/02 02:47:05;;;;;;;2.15;1.55;;;;;;;22.80;53.80;94116.19;4913869;24;20039;-94
2022/07/02 02:50:03;;;;;;;1.40;1.13;;;;;;;22.79;54.09;94109.19;4876434;24;20043;-96
2022/07/02 02:52:29;;;;;;;1.65;1.45;;;;;;;22.80;53.89;94115.44;4859541;24;20076;-96
2022/07/02 02:55:18;;;;;;;1.77;1.38;;;;;;;22.79;53.88;94105.69;4799870;24;20138;-95
2022/07/02 03:00:16;;;;;;;1.23;1.13;;;;;;;22.78;53.93;94104.94;4836397;24;20079;-94
2022/07/02 03:02:47;;;;;;;1.20;1.08;;;;;;;22.78;54.10;94112.47;4832785;24;20067;-95
2022/07/02 03:05:53;;;;;;;1.40;1.30;;;;;;;22.77;53.91;94106.19;4866162;24;20059;-96
2022/07/02 03:08:19;;;;;;;1.40;1.30;;;;;;;22.78;53.98;94106.94;4822513;24;20060;-95
2022/07/02 03:11:08;;;;;;;1.25;1.15;;;;;;;22.77;54.05;94113.69;4804067;24;20092;-96
2022/07/02 03:16:56;;;;;;;1.05;0.98;;;;;;;22.77;54.01;94116.47;4839369;24;20043;-95
2022/07/02 03:19:21;;;;;;;1.40;1.27;;;;;;;22.76;53.88;94112.22;4783467;24;20043;-96
2022/07/02 03:21:47;;;;;;;1.52;1.00;;;;;;;22.76;54.17;94117.72;4795626;24;20044;-95
2022/07/02 03:24:49;;;;;;;1.25;1.00;;;;;;;22.76;54.33;94118.47;4818238;24;20717;-96
2022/07/02 03:27:27;;;;;;;1.42;1.00;;;;;;;22.77;53.76;94116.47;4883554;24;20055;-95
2022/07/02 03:30:16;;;;;;;1.20;1.10;;;;;;;22.77;53.85;94121.97;4905136;24;20039;-95
2022/07/02 03:35:42;;;;;;;1.30;1.20;;;;;;;22.80;53.77;94129.22;4856706;24;20054;-96
2022/07/02 03:38:15;;;;;;;2.47;1.42;;;;;;;22.79;53.65;94131.25;4813409;24;20078;-96
2022/07/02 03:41:23;;;;;;;1.63;1.20;;;;;;;22.82;53.54;94132.94;4842537;24;20051;-96
2022/07/02 03:46:18;;;;;;;0.98;0.90;;;;;;;22.86;53.48;94122.38;4847708;24;20720;-95
2022/07/02 03:49:07;;;;;;;1.92;1.02;;;;;;;22.90;53.33;94127.59;4811181;24;20041;-95
2022/07/02 03:51:55;;;;;;;2.25;1.10;;;;;;;22.93;53.44;94123.03;4758593;30;20044;-95
2022/07/02 03:57:24;;;;;;;1.25;0.90;;;;;;;22.93;53.32;94115.53;5145504;22;20402;31
2022/07/02 03:59:53;;;;;;;1.30;1.17;;;;;;;22.93;53.18;94123.03;5058295;22;20042;-92
2022/07/02 04:02:34;;;;;;;1.00;0.95;;;;;;;22.94;53.05;94128.03;5104257;22;20049;-94
2022/07/02 04:05:12;;;;;;;1.08;0.98;;;;;;;22.95;53.14;94137.06;5077373;22;20044;-94
2022/07/02 04:10:18;;;;;;;1.10;1.00;;;;;;;22.94;53.25;94130.81;5064613;23;20063;-93
2022/07/02 04:13:08;;;;;;;1.17;1.08;;;;;;;22.97;53.10;94132.47;5090049;23;20020;-93
2022/07/02 04:15:43;;;;;;;1.13;1.02;;;;;;;22.97;53.17;94137.25;5055618;23;20027;-94
2022/07/02 04:18:18;;;;;;;0.80;0.80;;;;;;;22.99;53.02;94145.75;5037047;23;20050;-94
2022/07/02 04:21:20;;;;;;;1.30;0.90;;;;;;;22.99;53.23;94145.75;5170822;23;20050;-95
2022/07/02 04:23:46;;;;;;;0.90;0.90;;;;;;;23.00;53.13;94144.47;5069216;23;20045;-94
2022/07/02 04:29:07;;;;;;;1.15;1.05;;;;;;;23.02;52.91;94153.72;5057226;23;20037;-94
2022/07/02 04:31:48;;;;;;;1.00;0.90;;;;;;;23.00;53.20;94150.00;5044064;23;20030;-94
2022/07/02 04:34:46;;;;;;;1.10;0.80;;;;;;;23.01;53.07;94154.25;5068330;23;20057;-94
2022/07/02 04:37:15;;;;;;;1.00;0.85;;;;;;;23.01;52.99;94159.75;5053856;23;20034;-95
2022/07/02 04:42:11;;;;;;;1.00;0.93;;;;;;;23.01;53.06;94157.75;5078122;23;20870;-94
2022/07/02 04:44:37;;;;;;;0.93;0.90;;;;;;;23.03;52.96;94155.22;5112586;23;20059;-93
2022/07/02 04:47:09;;;;;;;1.77;0.80;;;;;;;23.04;52.69;94155.97;5037153;28;20108;-93
2022/07/02 04:49:34;;;;;;;0.93;0.88;;;;;;;23.04;52.92;94153.94;5097951;23;20037;-93
2022/07/02 04:52:20;;;;;;;1.10;0.90;;;;;;;23.05;52.74;94163.72;5035221;23;20034;-94
2022/07/02 04:55:02;;;;;;;0.95;0.93;;;;;;;23.06;52.84;94159.69;5059842;23;20069;-93
2022/07/02 04:57:57;;;;;;;1.02;0.93;;;;;;;23.08;52.62;94165.44;5062217;23;20050;-93
2022/07/02 05:00:25;;;;;;;0.80;0.80;;;;;;;23.08;52.59;94159.91;5163586;23;20057;-94
2022/07/02 05:03:03;;;;;;;0.95;0.77;;;;;;;23.09;52.38;94161.41;5114258;23;20047;-94
2022/07/02 05:05:51;;;;;;;0.98;0.88;;;;;;;23.11;52.75;94164.38;5109953;23;20042;-95
2022/07/02 05:08:20;;;;;;;1.13;0.90;;;;;;;23.12;52.83;94163.13;5054196;23;20022;-93
2022/07/02 05:11:09;;;;;;;0.75;0.75;;;;;;;23.12;52.86;94156.84;5006170;28;20049;-94
2022/07/02 05:16:08;;;;;;;0.60;0.60;;;;;;;23.17;52.65;94164.28;5048578;23;20050;-93
2022/07/02 05:21:05;;;;;;;0.90;0.70;;;;;;;23.18;52.55;94163.00;5077318;23;20036;-94
2022/07/02 05:23:51;;;;;;;0.77;0.77;;;;;;;23.21;52.70;94179.25;5075061;23;20103;-93
2022/07/02 05:26:33;;;;;;;0.70;0.70;;;;;;;23.23;52.50;94173.22;5090989;23;20029;-93
2022/07/02 05:28:59;;;;;;;2.33;0.88;;;;;;;23.21;52.70;94182.03;5058095;23;20055;-93
2022/07/02 05:31:25;;;;;;;1.35;0.70;;;;;;;23.22;52.81;94185.53;5070224;23;20045;-93
2022/07/02 05:36:21;;;;;;;0.80;0.70;;;;;;;23.27;52.45;94189.47;5154068;23;20037;-93
2022/07/02 05:39:18;;;;;;;0.75;0.70;;;;;;;23.27;52.73;94190.22;5053479;23;20038;-94
2022/07/02 05:42:24;;;;;;;1.00;0.77;;;;;;;23.29;52.63;94192.47;4999327;22;20047;-93
2022/07/02 05:44:51;;;;;;;0.95;0.70;;;;;;;23.28;52.70;94194.47;5053195;23;20038;-94
2022/07/02 05:47:17;;;;;;;0.60;0.60;;;;;;;23.31;52.56;94185.16;5070570;23;20037;-93
2022/07/02 05:52:07;;;;;;;0.60;0.60;;;;;;;23.33;52.50;94198.44;5210247;22;20060;-94
2022/07/02 05:54:51;;;;;;;0.70;0.68;;;;;;;23.33;52.57;94203.94;5024787;23;20045;-94
2022/07/02 05:57:47;;;;;;;0.70;0.60;;;;;;;23.36;52.61;94203.66;5063800;23;20088;-94
2022/07/02 06:00:48;;;;;;;0.70;0.60;;;;;;;23.35;52.67;94215.94;5081278;23;20045;-94
2022/07/02 06:03:55;;;;;;;0.93;0.82;;;;;;;23.38;52.46;94211.41;5025631;23;20046;-95
2022/07/02 06:09:36;;;;;;;1.00;0.80;;;;;;;23.41;52.18;94205.56;5039348;23;20053;-95
2022/07/02 06:12:02;;;;;;;0.57;0.57;;;;;;;23.43;52.38;94221.59;5063528;23;20050;-94
2022/07/02 06:14:35;;;;;;;0.75;0.73;;;;;;;23.43;52.42;94211.28;5028509;23;20078;-93
2022/07/02 06:17:22;;;;;;;0.55;0.55;;;;;;;23.43;52.43;94211.28;4897270;28;20020;-94
2022/07/02 06:22:27;;;;;;;0.90;0.77;;;;;;;23.45;52.40;94221.81;5069733;23;20038;-95
2022/07/02 06:25:11;;;;;;;0.63;0.63;;;;;;;23.45;52.64;94219.06;5084585;23;20021;-94
2022/07/02 06:27:57;;;;;;;0.70;0.70;;;;;;;23.45;52.42;94216.28;5113585;23;20040;-94
2022/07/02 06:33:08;;;;;;;0.60;0.60;;;;;;;23.48;52.25;94227.03;5471680;22;20032;-95
2022/07/02 06:36:21;;;;;;;1.00;0.80;;;;;;;23.50;52.40;94232.03;5080103;28;20035;-94
2022/07/02 06:38:59;;;;;;;0.63;0.60;;;;;;;23.51;52.30;94228.75;5066249;23;20076;-94
2022/07/02 06:44:11;;;;;;;0.80;0.77;;;;;;;23.51;52.32;94220.47;5172276;22;20008;-94
2022/07/02 06:46:37;;;;;;;0.95;0.70;;;;;;;23.53;52.51;94219.97;5091940;23;20017;-93
2022/07/02 06:49:29;;;;;;;0.57;0.57;;;;;;;23.54;52.21;94230.50;5101130;22;20056;-95
2022/07/02 06:51:55;;;;;;;0.70;0.70;;;;;;;23.55;52.23;94231.97;5083029;23;20045;-94
2022/07/02 06:57:23;;;;;;;0.70;0.68;;;;;;;23.58;52.24;94224.66;5129912;22;21122;-94
2022/07/02 06:59:50;;;;;;;1.20;0.77;;;;;;;23.60;52.34;94222.09;5068806;23;20034;-94
2022/07/02 07:02:19;;;;;;;0.47;0.47;;;;;;;23.61;52.15;94220.84;5077278;23;20052;-95
2022/07/02 07:04:48;;;;;;;0.63;0.50;;;;;;;23.59;52.25;94226.16;5061776;23;20045;-95
2022/07/02 07:07:13;;;;;;;0.55;0.55;;;;;;;23.62;52.24;94227.09;5054976;28;20021;-94
2022/07/02 07:09:45;;;;;;;0.80;0.70;;;;;;;23.62;52.19;94233.38;5240507;22;20075;-94
2022/07/02 07:12:11;;;;;;;0.90;0.80;;;;;;;23.62;52.31;94227.84;5088451;23;20060;-93
2022/07/02 07:14:37;;;;;;;0.68;0.65;;;;;;;23.62;52.33;94230.59;5050850;23;20029;-94
2022/07/02 07:17:30;;;;;;;0.55;0.55;;;;;;;23.61;52.27;94229.13;5097572;22;20037;-94
2022/07/02 07:20:16;;;;;;;0.63;0.63;;;;;;;23.62;52.04;94236.13;5114487;22;20060;-94
2022/07/02 07:23:08;;;;;;;0.88;0.70;;;;;;;23.62;52.31;94233.38;5077027;22;20037;-93
2022/07/02 07:25:41;;;;;;;0.60;0.60;;;;;;;23.62;52.36;94221.56;5049184;22;20028;-94
2022/07/02 07:28:09;;;;;;;0.93;0.68;;;;;;;23.63;52.23;94221.06;5172724;22;20060;-93
2022/07/02 07:30:55;;;;;;;0.93;0.75;;;;;;;23.65;52.41;94226.78;5271748;22;20020;31
2022/07/02 07:33:25;;;;;;;0.63;0.60;;;;;;;23.65;52.32;94217.78;5053033;22;20034;-94
2022/07/02 07:35:50;;;;;;;2.15;0.70;;;;;;;23.65;52.31;94224.03;5057661;23;20061;-95
2022/07/02 07:38:25;;;;;;;1.00;0.90;;;;;;;23.64;52.08;94224.56;5012121;28;20044;-95
2022/07/02 07:40:53;;;;;;;1.88;1.17;;;;;;;23.68;52.14;94227.75;5079429;22;20081;-94
2022/07/02 07:43:30;;;;;;;51.05;39.55;;;;;;;23.66;52.08;94224.78;5024501;23;20036;-95
2022/07/02 07:45:57;;;;;;;12.68;10.55;;;;;;;23.68;52.17;94225.75;5041081;28;20056;-95
2022/07/02 07:48:22;;;;;;;4.45;3.38;;;;;;;23.67;52.18;94226.28;5036996;28;20137;-95
2022/07/02 07:50:50;;;;;;;2.25;1.90;;;;;;;23.69;52.17;94229.25;5041232;28;20041;-94
2022/07/02 07:53:16;;;;;;;1.40;1.30;;;;;;;23.67;52.17;94232.53;5035244;28;20045;-92
2022/07/02 07:55:41;;;;;;;1.60;1.50;;;;;;;23.65;52.10;94237.84;5039438;28;20107;-95
2022/07/02 07:58:07;;;;;;;2.10;1.60;;;;;;;23.67;52.37;94234.56;5028777;28;20049;-94
2022/07/02 08:00:32;;;;;;;2.25;1.90;;;;;;;23.64;52.34;94233.59;5038467;28;20033;-95
2022/07/02 08:02:58;;;;;;;1.23;1.13;;;;;;;23.65;52.31;94245.38;5049648;28;20040;-94
2022/07/02 08:05:24;;;;;;;1.48;1.38;;;;;;;23.63;52.49;94240.38;5031079;28;20040;-94
2022/07/02 08:07:49;;;;;;;1.48;1.30;;;;;;;23.65;52.50;94248.13;5048402;28;20121;-94
2022/07/02 08:10:16;;;;;;;2.03;1.80;;;;;;;23.66;52.29;94235.81;5062919;28;20040;-92
2022/07/02 08:12:41;;;;;;;2.33;1.88;;;;;;;23.66;52.31;94246.88;5029794;28;20033;-95
2022/07/02 08:15:08;;;;;;;2.38;2.15;;;;;;;23.64;52.30;94249.41;5043865;28;20040;-94
2022/07/02 08:17:34;;;;;;;2.28;1.77;;;;;;;23.65;52.34;94239.84;5077788;28;20048;-94
2022/07/02 08:20:02;;;;;;;2.10;1.73;;;;;;;23.64;52.36;94241.88;5051537;28;20035;-96
2022/07/02 08:22:28;;;;;;;1.60;1.50;;;;;;;23.64;52.30;94225.31;5034945;28;20041;-94
2022/07/02 08:24:53;;;;;;;2.45;2.15;;;;;;;23.64;52.47;94227.31;5016173;28;20055;-95
2022/07/02 08:27:19;;;;;;;1.50;1.40;;;;;;;23.60;52.37;94237.94;5029964;28;20044;-93
2022/07/02 08:29:45;;;;;;;2.03;1.83;;;;;;;23.63;52.25;94236.88;5030309;28;20063;-95
2022/07/02 08:32:10;;;;;;;2.03;1.70;;;;;;;23.64;52.23;94228.06;5029287;28;20123;-95
2022/07/02 08:34:36;;;;;;;1.60;1.42;;;;;;;23.62;52.25;94219.56;5044834;28;20067;-94
2022/07/02 08:37:01;;;;;;;2.20;1.40;;;;;;;23.63;52.52;94220.31;5048089;28;20033;-95
2022/07/02 08:39:27;;;;;;;1.88;1.58;;;;;;;23.62;52.41;94222.31;5028382;28;20043;-95
2022/07/02 08:41:55;;;;;;;1.80;1.60;;;;;;;23.61;52.39;94229.13;5033236;28;20044;-94
2022/07/02 08:44:29;;;;;;;1.98;1.40;;;;;;;23.61;52.37;94220.84;5017707;28;20058;-95
2022/07/02 08:46:57;;;;;;;2.05;1.50;;;;;;;23.61;52.34;94226.34;5027686;23;20116;-94
2022/07/02 08:49:43;;;;;;;2.63;1.88;;;;;;;23.59;52.64;94215.13;4983642;28;20059;-96
2022/07/02 08:52:19;;;;;;;2.00;1.70;;;;;;;23.59;52.62;94217.88;4991902;28;20029;-95
2022/07/02 08:54:59;;;;;;;1.80;1.42;;;;;;;23.60;52.51;94208.31;5000485;28;20041;-94
2022/07/02 08:57:32;;;;;;;2.00;1.55;;;;;;;23.59;52.39;94215.13;4952486;28;20038;-94
2022/07/02 09:00:06;;;;;;;2.38;1.20;;;;;;;23.59;52.60;94215.13;4981227;28;20094;-94
2022/07/02 09:02:38;;;;;;;1.63;1.30;;;;;;;23.57;52.72;94218.41;4973496;28;20041;-95
2022/07/02 09:05:05;;;;;;;1.98;1.35;;;;;;;23.58;52.94;94211.63;4977676;28;20072;-94
2022/07/02 09:07:32;;;;;;;1.38;1.17;;;;;;;23.61;52.52;94220.09;4978540;28;20041;-95
2022/07/02 09:10:00;;;;;;;2.08;1.40;;;;;;;23.58;52.66;94221.91;4961099;28;20385;-94
2022/07/02 09:12:33;;;;;;;2.50;1.85;;;;;;;23.58;52.44;94214.38;4968618;28;20062;-95
2022/07/02 09:15:17;;;;;;;1.30;1.20;;;;;;;23.57;52.54;94210.13;4977040;28;20606;-94
2022/07/02 09:17:45;;;;;;;2.40;1.60;;;;;;;23.60;52.67;94219.34;4971642;28;20045;-95
2022/07/02 09:20:20;;;;;;;2.20;1.60;;;;;;;23.58;52.63;94213.63;4961148;28;20046;-93
2022/07/02 09:22:49;;;;;;;1.60;1.35;;;;;;;23.57;52.65;94214.91;4976844;28;20038;-95
2022/07/02 09:25:17;;;;;;;1.95;1.38;;;;;;;23.57;52.57;94210.13;4987056;28;20037;-94
2022/07/02 09:27:44;;;;;;;1.60;1.40;;;;;;;23.58;52.54;94208.09;4970087;28;20484;-95
2022/07/02 09:30:14;;;;;;;1.52;1.27;;;;;;;23.57;52.57;94214.91;5001231;28;20061;-94
2022/07/02 09:32:49;;;;;;;1.40;1.30;;;;;;;23.60;52.52;94210.34;4983684;28;20042;-94
2022/07/02 09:35:23;;;;;;;2.05;1.80;;;;;;;23.56;52.73;94210.66;4975011;28;20073;-94
2022/07/02 09:37:51;;;;;;;1.55;1.38;;;;;;;23.56;52.74;94205.88;4960748;28;20503;-94
2022/07/02 09:40:28;;;;;;;2.05;1.65;;;;;;;23.57;52.73;94206.63;4953622;28;20117;-95
2022/07/02 09:42:56;;;;;;;1.90;1.30;;;;;;;23.60;52.70;94207.59;4989689;28;20513;-95
2022/07/02 09:45:24;;;;;;;1.67;1.58;;;;;;;23.58;52.70;94208.09;4963298;28;20072;-94
2022/07/02 09:47:57;;;;;;;1.48;1.30;;;;;;;23.57;52.47;94209.38;4970759;28;20037;-94
2022/07/02 09:50:48;;;;;;;1.40;1.30;;;;;;;23.53;52.81;94197.91;4984719;28;20047;-95
2022/07/02 09:53:17;;;;;;;1.80;1.40;;;;;;;23.58;52.42;94203.34;4930178;28;20030;-94
2022/07/02 09:55:50;;;;;;;1.48;1.38;;;;;;;23.55;52.81;94201.63;4990841;28;20675;-94
2022/07/02 09:58:36;;;;;;;1.40;1.30;;;;;;;23.55;53.09;94198.84;4985585;28;20037;-94
2022/07/02 10:01:02;;;;;;;1.88;1.50;;;;;;;23.54;52.57;94207.66;4975318;28;20053;-93
2022/07/02 10:03:33;;;;;;;1.85;1.42;;;;;;;23.58;52.90;94202.59;4941738;28;20103;-94
2022/07/02 10:06:01;;;;;;;;;;;;;;;23.55;52.78;94209.16;4957468;28;20046;-95
2022/07/02 10:08:36;;;;;;;1.30;1.20;;;;;;;23.56;52.80;94208.63;5003061;28;20028;-93
2022/07/02 10:11:14;;;;;;;1.45;1.35;;;;;;;23.54;52.81;94193.88;5001522;28;20117;-96
2022/07/02 10:13:40;;;;;;;1.20;1.10;;;;;;;23.55;52.79;94209.16;4994106;28;20613;-93
2022/07/02 10:16:17;;;;;;;1.27;1.02;;;;;;;23.55;52.90;94196.09;4992180;28;20053;-95
2022/07/02 10:18:43;;;;;;;1.10;1.00;;;;;;;23.53;53.03;94190.34;4991167;28;20087;-94
2022/07/02 10:21:17;;;;;;;1.52;1.23;;;;;;;23.51;52.89;94195.63;4952023;28;20034;-93
2022/07/02 10:23:49;;;;;;;1.65;1.30;;;;;;;23.55;52.86;94200.88;4963689;28;20507;-95
2022/07/02 10:26:20;;;;;;;1.75;1.40;;;;;;;23.54;52.99;94193.88;4972310;28;20129;-95
2022/07/02 10:28:48;;;;;;;1.27;1.10;;;;;;;23.54;52.74;94193.88;4965876;28;20417;-94
2022/07/02 10:31:19;;;;;;;1.65;1.27;;;;;;;23.55;52.80;94189.84;4994380;28;20026;-95
2022/07/02 10:34:11;;;;;;;;;;;;;;;23.52;52.73;94188.13;4981724;28;20099;-94
2022/07/02 10:36:44;;;;;;;1.85;1.58;;;;;;;23.53;52.84;94181.34;4986285;28;19917;-95
2022/07/02 10:39:37;;;;;;;1.70;1.40;;;;;;;23.54;52.85;94189.09;4976901;28;20480;-94
2022/07/02 10:42:08;;;;;;;1.75;1.20;;;;;;;23.53;52.75;94189.63;5021771;28;20037;-95
2022/07/02 10:44:50;;;;;;;1.92;1.38;;;;;;;23.54;52.74;94193.88;4956004;28;20053;-95
2022/07/02 10:47:31;;;;;;;1.20;1.10;;;;;;;23.52;52.82;94190.88;5003444;28;20038;-95
2022/07/02 10:50:00;;;;;;;1.75;1.20;;;;;;;23.51;52.92;94172.81;4955016;28;20057;-95
2022/07/02 10:53:13;;;;;;;1.13;1.02;;;;;;;23.49;52.81;94167.81;4978794;28;20420;-95
2022/07/02 10:55:43;;;;;;;1.52;1.30;;;;;;;23.52;52.95;94179.84;4934667;28;20058;-94
2022/07/02 10:58:37;;;;;;;1.17;1.08;;;;;;;23.51;52.87;94167.28;4896067;28;20044;-95
2022/07/02 11:01:20;;;;;;;2.40;0.95;;;;;;;23.50;52.82;94163.03;4904843;29;20131;-94
2022/07/02 11:03:58;;;;;;;1.40;1.00;;;;;;;23.50;52.80;94165.78;4879567;29;20048;-95
2022/07/02 11:06:33;;;;;;;1.40;1.20;;;;;;;23.50;52.98;94166.53;4856798;29;20044;-95
2022/07/02 11:09:12;;;;;;;0.98;0.95;;;;;;;23.51;52.80;94164.53;4859906;29;20048;-94
2022/07/02 11:11:46;;;;;;;1.58;1.13;;;;;;;23.53;52.75;94153.72;4865311;29;20073;-94
2022/07/02 11:14:26;;;;;;;1.10;1.00;;;;;;;23.50;53.29;94147.22;4882856;29;20056;-93
2022/07/02 11:17:23;;;;;;;1.50;1.08;;;;;;;23.50;52.88;94146.47;4872961;29;20464;-94
2022/07/02 11:19:55;;;;;;;1.38;1.25;;;;;;;23.52;52.80;94155.75;4860537;29;20056;-95
2022/07/02 11:22:26;;;;;;;1.80;1.13;;;;;;;23.51;52.90;94153.50;4847174;29;20051;-95
2022/07/02 11:25:05;;;;;;;1.10;0.90;;;;;;;23.54;52.98;94144.19;4870110;29;20044;-95
2022/07/02 11:27:55;;;;;;;1.42;1.23;;;;;;;23.50;52.79;94141.69;4867260;29;20151;-94
2022/07/02 11:30:30;;;;;;;1.27;1.17;;;;;;;23.50;52.86;94138.94;4846123;29;20066;-95
2022/07/02 11:33:11;;;;;;;1.10;1.00;;;;;;;23.50;52.89;94138.94;4964869;28;20038;-96
2022/07/02 11:35:39;;;;;;;1.50;1.13;;;;;;;23.54;52.93;94138.66;4971315;28;20104;-96
2022/07/02 11:38:10;;;;;;;1.95;1.10;;;;;;;23.49;52.84;94140.22;4951769;28;20508;-95
2022/07/02 11:40:39;;;;;;;0.85;0.80;;;;;;;23.51;53.01;94140.44;4979368;28;20124;-95
2022/07/02 11:43:18;;;;;;;2.00;0.93;;;;;;;23.50;52.87;94133.41;4952359;28;20033;-95
2022/07/02 11:45:47;;;;;;;1.00;0.90;;;;;;;23.53;53.01;94137.19;4966528;28;20038;-95
2022/07/02 11:48:24;;;;;;;0.90;0.82;;;;;;;23.51;52.86;94132.16;4934674;28;20045;-95
2022/07/02 11:51:11;;;;;;;1.20;1.10;;;;;;;23.50;52.95;94133.41;4968832;28;20048;-96
2022/07/02 11:53:44;;;;;;;1.30;1.00;;;;;;;23.50;52.94;94130.66;4964607;28;20030;-95
2022/07/02 11:56:13;;;;;;;1.20;1.10;;;;;;;23.53;52.88;94131.66;4968064;28;20034;-96
2022/07/02 11:58:46;;;;;;;1.30;1.05;;;;;;;23.51;52.71;94128.66;4937533;28;20045;-95
2022/07/02 12:01:31;;;;;;;;;;;;;;;;;;;;;
2022/07/02 12:04:21;;;;;;;1.08;0.98;;;;;;;23.54;52.67;94130.38;4934904;28;20508;-95
2022/07/02 12:07:01;;;;;;;1.35;1.15;;;;;;;23.51;52.81;94126.63;4937993;28;20040;-95
2022/07/02 12:09:28;;;;;;;1.27;1.08;;;;;;;23.52;52.57;94116.38;4956019;28;20551;-96
2022/07/02 12:11:56;;;;;;;0.70;0.70;;;;;;;23.53;52.63;94126.13;4963455;28;20184;-95
2022/07/02 12:14:36;;;;;;;1.20;1.08;;;;;;;23.52;52.79;94117.13;4964238;28;20048;-94
2022/07/02 12:17:04;;;;;;;0.80;0.80;;;;;;;23.53;53.04;94118.59;4951045;28;20068;-95
2022/07/02 12:19:37;;;;;;;1.05;0.95;;;;;;;23.51;52.61;94115.59;4950432;28;20045;-95
2022/07/02 12:22:05;;;;;;;1.33;0.90;;;;;;;23.53;53.00;94121.38;4997151;28;20034;-94
2022/07/02 12:24:41;;;;;;;1.35;0.80;;;;;;;23.51;52.80;94115.59;4945076;28;20136;-94
2022/07/02 12:27:10;;;;;;;1.52;1.30;;;;;;;23.54;52.81;94109.06;4959946;28;20042;-94
2022/07/02 12:30:05;;;;;;;0.98;0.88;;;;;;;23.55;52.81;94098.75;4963058;28;20124;-95
2022/07/02 12:32:39;;;;;;;1.85;1.13;;;;;;;23.55;52.79;94096.00;4954341;28;20041;-94
2022/07/02 12:35:21;;;;;;;2.38;1.40;;;;;;;23.53;52.81;94101.28;4984397;28;20038;-94
2022/07/02 12:37:52;;;;;;;0.98;0.90;;;;;;;23.54;52.82;94094.50;4957461;28;20061;-95
2022/07/02 12:40:37;;;;;;;0.80;0.80;;;;;;;23.53;52.68;94079.97;4987864;28;20413;-95
2022/07/02 12:43:05;;;;;;;1.67;1.10;;;;;;;23.54;52.90;94083.47;4980803;28;20026;-94
2022/07/02 12:45:40;;;;;;;0.80;0.80;;;;;;;23.52;52.73;94081.22;4960697;28;20034;-93
2022/07/02 12:48:13;;;;;;;1.35;0.93;;;;;;;23.55;52.97;94084.97;4986082;28;20129;-94
2022/07/02 12:50:52;;;;;;;1.33;1.10;;;;;;;23.54;53.09;94081.44;4933745;28;20166;-95
2022/07/02 12:53:24;;;;;;;0.80;0.80;;;;;;;23.54;52.75;94083.47;4960576;28;20398;-94
2022/07/02 12:56:18;;;;;;;1.30;1.00;;;;;;;23.53;52.96;94081.97;4989718;28;20033;-94
2022/07/02 12:58:54;;;;;;;1.50;1.02;;;;;;;23.54;52.76;94084.22;4935706;28;20040;-95
2022/07/02 13:01:33;;;;;;;1.30;0.80;;;;;;;23.55;52.69;94065.63;4917410;28;20502;-95
2022/07/02 13:03:59;;;;;;;0.80;0.80;;;;;;;23.56;52.66;94062.34;4935554;28;20505;-95
2022/07/02 13:06:28;;;;;;;1.35;1.02;;;;;;;23.55;52.72;94062.88;4919876;28;20152;-95
2022/07/02 13:08:58;;;;;;;0.70;0.70;;;;;;;23.57;52.78;94060.34;4944069;28;20042;-95
2022/07/02 13:11:31;;;;;;;0.80;0.80;;;;;;;23.56;52.81;94058.84;4920233;28;20049;-94
2022/07/02 13:14:09;;;;;;;0.95;0.80;;;;;;;23.57;52.90;94058.31;4939935;28;20426;-94
2022/07/02 13:16:37;;;;;;;1.23;0.80;;;;;;;23.59;52.81;94057.78;4920828;28;20039;-94
2022/07/02 13:19:07;;;;;;;1.13;0.93;;;;;;;23.57;52.65;94061.06;4900653;28;20091;-94
2022/07/02 13:21:38;;;;;;;0.80;0.80;;;;;;;23.58;52.71;94051.53;4937667;28;20098;-94
2022/07/02 13:24:09;;;;;;;1.98;1.00;;;;;;;23.59;52.79;94057.78;4914164;28;20042;-95
2022/07/02 13:26:37;;;;;;;2.10;0.80;;;;;;;23.58;52.56;94054.28;4914018;28;20034;-94
2022/07/02 13:29:08;;;;;;;0.90;0.90;;;;;;;23.61;52.67;94046.19;4953524;28;20057;-95
2022/07/02 13:31:50;;;;;;;1.17;1.08;;;;;;;23.60;52.99;94042.69;4910876;28;20425;-95
2022/07/02 13:34:26;;;;;;;0.93;0.88;;;;;;;23.60;52.82;94047.50;4942182;28;20042;-95
2022/07/02 13:36:54;;;;;;;0.95;0.70;;;;;;;23.62;52.87;94047.69;4922729;28;20042;-96
2022/07/02 13:39:22;;;;;;;0.60;0.60;;;;;;;23.62;52.81;94058.72;4993312;28;20038;-95